createdAt,value
2022-08-17T00:00:44.062Z,39.28
2022-08-17T00:03:11.813Z,39.33
2022-08-17T00:05:47.927Z,45.63
2022-08-17T00:08:19.428Z,43.38
2022-08-17T00:10:47.935Z,40.50
2022-08-17T00:13:19.562Z,40.17
2022-08-17T00:15:48.534Z,42.13
2022-08-17T00:19:06.026Z,48.92
2022-08-17T00:21:10.664Z,48.60
2022-08-17T00:23:47.725Z,44.67
2022-08-17T00:26:34.643Z,44.08
2022-08-17T00:29:08.537Z,45.55
2022-08-17T00:31:38.634Z,45.08
2022-08-17T00:34:11.099Z,43.97
2022-08-17T00:36:40.530Z,49.45
2022-08-17T00:39:08.627Z,43.35
2022-08-17T00:41:36.700Z,47.85
2022-08-17T00:44:12.301Z,56.90
2022-08-17T00:46:43.291Z,47.60
2022-08-17T00:49:13.307Z,50.97
2022-08-17T00:51:47.399Z,54.40
2022-08-17T00:54:19.825Z,55.35
2022-08-17T00:56:52.161Z,51.25
2022-08-17T00:59:22.776Z,53.70
2022-08-17T01:01:51.985Z,59.28
2022-08-17T01:04:22.966Z,51.38
2022-08-17T01:06:54.686Z,58.85
2022-08-17T01:09:23.014Z,58.45
2022-08-17T01:11:52.392Z,61.53
2022-08-17T01:14:21.466Z,51.75
2022-08-17T01:16:50.673Z,49.88
2022-08-17T01:19:22.188Z,52.10
2022-08-17T01:21:56.138Z,49.25
2022-08-17T01:24:25.839Z,49.17
2022-08-17T01:26:53.912Z,46.03
2022-08-17T01:29:25.885Z,51.72
2022-08-17T01:31:57.816Z,52.80
2022-08-17T01:34:36.835Z,55.75
2022-08-17T01:37:12.240Z,46.60
2022-08-17T01:39:45.454Z,48.88
2022-08-17T01:42:20.277Z,46.33
2022-08-17T01:44:48.467Z,45.50
2022-08-17T01:47:16.569Z,45.80
2022-08-17T01:49:45.761Z,49.50
2022-08-17T01:52:14.495Z,51.13
2022-08-17T01:54:47.783Z,43.75
2022-08-17T01:57:16.127Z,46.53
2022-08-17T01:59:44.248Z,53.78
2022-08-17T02:02:12.382Z,48.92
2022-08-17T02:04:58.364Z,51.80
2022-08-17T02:07:27.063Z,43.47
2022-08-17T02:09:57.667Z,45.60
2022-08-17T02:12:37.252Z,50.30
2022-08-17T02:15:09.691Z,59.45
2022-08-17T02:17:37.762Z,51.05
2022-08-17T02:20:08.144Z,51.47
2022-08-17T02:22:37.367Z,63.55
2022-08-17T02:25:10.807Z,64.38
2022-08-17T02:27:40.250Z,71.82
2022-08-17T02:31:01.946Z,67.68
2022-08-17T02:33:00.266Z,60.38
2022-08-17T02:35:32.421Z,82.03
2022-08-17T02:38:01.772Z,98.00
2022-08-17T02:40:36.002Z,59.25
2022-08-17T02:43:05.673Z,113.43
2022-08-17T02:45:33.960Z,110.22
2022-08-17T02:48:02.138Z,69.57
2022-08-17T02:50:30.398Z,209.32
2022-08-17T02:53:02.532Z,146.43
2022-08-17T02:55:36.128Z,78.38
2022-08-17T02:58:04.710Z,197.55
2022-08-17T03:00:35.614Z,336.98
2022-08-17T03:03:06.028Z,77.72
2022-08-17T03:05:35.930Z,227.52
2022-08-17T03:08:04.652Z,244.80
2022-08-17T03:10:34.859Z,98.15
2022-08-17T03:13:02.922Z,249.23
2022-08-17T04:42:25.931Z,62.83
2022-08-17T04:44:54.231Z,102.07
2022-08-17T04:47:23.730Z,58.10
2022-08-17T04:49:53.593Z,187.88
2022-08-17T04:52:31.539Z,60.85
2022-08-17T04:55:10.855Z,127.88
2022-08-17T04:57:44.540Z,192.48
2022-08-17T05:00:14.448Z,79.72
2022-08-17T05:02:49.737Z,71.15
2022-08-17T05:05:20.209Z,92.60
2022-08-17T05:07:49.603Z,242.68
2022-08-17T05:10:18.217Z,68.32
2022-08-17T05:12:49.004Z,61.63
2022-08-17T05:15:17.329Z,61.78
2022-08-17T05:17:48.359Z,55.78
2022-08-17T05:20:16.844Z,79.38
2022-08-17T05:22:51.238Z,59.17
2022-08-17T05:25:25.542Z,111.60
2022-08-17T05:27:56.309Z,61.35
2022-08-17T05:30:27.948Z,77.32
2022-08-17T05:32:58.943Z,62.40
2022-08-17T05:35:28.958Z,58.53
2022-08-17T05:37:57.347Z,63.40
2022-08-17T05:40:27.372Z,73.47
2022-08-17T05:43:12.038Z,82.07
2022-08-17T05:45:54.324Z,74.57
2022-08-17T05:48:39.339Z,66.43
2022-08-17T05:51:33.209Z,98.75
2022-08-17T05:54:15.814Z,84.82
2022-08-17T05:57:04.370Z,65.05
2022-08-17T05:59:43.614Z,73.75
2022-08-17T06:02:21.391Z,79.22
2022-08-17T06:05:03.778Z,86.68
2022-08-17T06:07:37.822Z,86.93
2022-08-17T06:10:14.724Z,96.05
2022-08-17T06:12:57.147Z,150.50
2022-08-17T06:15:34.101Z,112.53
2022-08-17T06:18:05.449Z,115.13
2022-08-17T06:20:40.115Z,112.90
2022-08-17T06:23:14.397Z,100.70
2022-08-17T06:25:47.453Z,145.57
2022-08-17T06:28:24.357Z,101.13
2022-08-17T06:31:00.666Z,107.00
2022-08-17T06:33:34.859Z,114.72
2022-08-17T06:36:17.597Z,117.07
2022-08-17T06:39:00.133Z,112.47
2022-08-17T06:41:38.133Z,144.75
2022-08-17T06:44:43.211Z,108.47
2022-08-17T06:47:12.608Z,119.05
2022-08-17T06:49:54.650Z,117.45
2022-08-17T06:52:43.419Z,120.95
2022-08-17T06:55:21.422Z,130.20
2022-08-17T06:58:15.533Z,117.10
2022-08-17T07:00:48.371Z,146.63
2022-08-17T07:03:29.215Z,142.60
2022-08-17T07:06:03.169Z,137.95
2022-08-17T07:08:43.651Z,123.05
2022-08-17T07:11:19.361Z,130.38
2022-08-17T07:13:55.372Z,103.43
2022-08-17T07:16:29.231Z,97.18
2022-08-17T07:19:00.237Z,95.60
2022-08-17T07:21:40.977Z,88.45
2022-08-17T07:24:31.708Z,86.75
2022-08-17T07:27:13.674Z,83.95
2022-08-17T07:29:47.984Z,82.90
2022-08-17T07:32:19.587Z,95.43
2022-08-17T07:35:07.509Z,96.18
2022-08-17T07:37:40.194Z,83.88
2022-08-17T07:40:18.561Z,76.57
2022-08-17T07:43:23.465Z,75.68
2022-08-17T07:46:16.178Z,92.88
2022-08-17T07:48:49.725Z,88.15
2022-08-17T07:51:26.301Z,78.18
2022-08-17T07:54:12.896Z,74.45
2022-08-17T07:56:46.613Z,122.00
2022-08-17T07:59:18.150Z,72.80
2022-08-17T08:02:05.371Z,65.95
2022-08-17T08:07:38.325Z,65.25
2022-08-17T08:10:11.011Z,62.90
2022-08-17T08:12:41.320Z,63.88
2022-08-17T08:15:17.415Z,63.53
2022-08-17T08:17:54.208Z,66.22
2022-08-17T08:20:52.184Z,63.47
2022-08-17T08:23:34.930Z,62.72
2022-08-17T08:26:18.397Z,63.03
2022-08-17T08:28:52.968Z,59.88
2022-08-17T08:31:31.032Z,60.88
2022-08-17T08:34:47.415Z,57.08
2022-08-17T08:37:16.297Z,59.00
2022-08-17T08:40:00.332Z,59.10
2022-08-17T08:42:37.714Z,57.60
2022-08-17T08:45:20.577Z,59.75
2022-08-17T08:48:23.025Z,60.70
2022-08-17T08:51:03.561Z,67.45
2022-08-17T08:53:42.277Z,60.33
2022-08-17T08:56:17.659Z,64.28
2022-08-17T08:58:53.550Z,65.82
2022-08-17T09:01:31.300Z,70.63
2022-08-17T09:04:24.791Z,66.60
2022-08-17T09:07:09.294Z,72.78
2022-08-17T09:09:49.829Z,74.68
2022-08-17T09:12:29.294Z,73.30
2022-08-17T09:15:12.348Z,69.60
2022-08-17T09:18:08.565Z,69.15
2022-08-17T09:20:50.011Z,67.22
2022-08-17T09:23:32.561Z,67.22
2022-08-17T09:26:16.826Z,66.28
2022-08-17T09:28:53.102Z,63.75
2022-08-17T09:31:32.691Z,59.17
2022-08-17T09:34:06.733Z,66.75
2022-08-17T09:36:43.174Z,62.95
2022-08-17T09:39:16.455Z,62.88
2022-08-17T09:41:49.970Z,69.20
2022-08-17T09:44:26.009Z,68.18
2022-08-17T09:47:00.168Z,70.85
2022-08-17T09:49:32.848Z,69.47
2022-08-17T09:52:07.728Z,68.60
2022-08-17T09:54:40.279Z,70.18
2022-08-17T09:57:31.635Z,71.03
2022-08-17T10:00:16.583Z,68.38
2022-08-17T10:03:11.902Z,71.43
2022-08-17T10:05:48.257Z,66.18
2022-08-17T10:08:29.212Z,73.00
2022-08-17T10:11:08.652Z,68.95
2022-08-17T10:13:53.084Z,70.10
2022-08-17T10:16:28.735Z,70.15
2022-08-17T10:19:17.927Z,67.85
2022-08-17T10:22:34.653Z,63.78
2022-08-17T10:25:42.572Z,58.00
2022-08-17T10:28:25.876Z,63.85
2022-08-17T10:31:30.792Z,59.70
2022-08-17T10:34:04.758Z,56.88
2022-08-17T10:36:46.391Z,54.65
2022-08-17T10:39:27.052Z,50.80
2022-08-17T10:42:01.857Z,48.95
2022-08-17T10:44:46.447Z,47.00
2022-08-17T10:47:18.275Z,46.17
2022-08-17T10:49:49.757Z,44.15
2022-08-17T10:52:51.922Z,38.75
2022-08-17T10:55:22.070Z,40.15
2022-08-17T10:57:55.092Z,35.78
2022-08-17T11:01:00.168Z,38.67
2022-08-17T11:03:28.862Z,38.70
2022-08-17T11:06:06.385Z,39.03
2022-08-17T11:09:09.981Z,38.25
2022-08-17T11:12:09.503Z,37.38
2022-08-17T11:14:48.163Z,38.65
2022-08-17T11:17:30.836Z,36.60
2022-08-17T11:20:38.537Z,35.08
2022-08-17T11:23:43.583Z,35.55
2022-08-17T11:26:26.220Z,37.22
2022-08-17T11:29:01.474Z,36.90
2022-08-17T11:31:39.897Z,38.58
2022-08-17T11:34:18.590Z,41.67
2022-08-17T11:37:12.685Z,38.65
2022-08-17T11:40:08.317Z,38.97
2022-08-17T11:42:54.454Z,35.03
2022-08-17T11:45:55.404Z,35.92
2022-08-17T11:48:48.367Z,36.65
2022-08-17T11:51:34.744Z,33.33
2022-08-17T11:54:32.715Z,39.40
2022-08-17T11:56:56.851Z,33.05
2022-08-17T11:59:59.676Z,33.20
2022-08-17T12:02:47.442Z,30.30
2022-08-17T12:05:40.418Z,31.48
2022-08-17T12:08:20.375Z,38.00
2022-08-17T12:11:04.017Z,36.58
2022-08-17T12:13:39.560Z,36.78
2022-08-17T12:16:10.151Z,32.75
2022-08-17T12:18:42.281Z,33.92
2022-08-17T12:21:30.326Z,31.60
2022-08-17T12:24:06.595Z,31.83
2022-08-17T12:26:37.647Z,28.42
2022-08-17T12:29:18.413Z,28.70
2022-08-17T12:32:03.549Z,31.50
2022-08-17T12:34:40.804Z,29.80
2022-08-17T12:37:16.291Z,28.25
2022-08-17T12:39:52.740Z,28.55
2022-08-17T12:42:28.811Z,26.90
2022-08-17T12:44:57.453Z,29.20
2022-08-17T12:47:29.491Z,27.73
2022-08-17T12:50:29.192Z,29.98
2022-08-17T12:53:01.981Z,25.88
2022-08-17T12:55:39.013Z,26.65
2022-08-17T12:58:14.394Z,25.60
2022-08-17T13:00:49.866Z,26.17
2022-08-17T13:03:21.056Z,26.35
2022-08-17T13:05:59.961Z,26.65
2022-08-17T13:08:32.245Z,26.52
2022-08-17T13:11:03.136Z,25.50
2022-08-17T13:13:34.152Z,27.13
2022-08-17T13:16:05.067Z,30.73
2022-08-17T13:18:39.655Z,27.08
2022-08-17T13:21:23.345Z,29.23
2022-08-17T13:24:03.381Z,30.63
2022-08-17T13:26:34.938Z,31.52
2022-08-17T13:29:06.556Z,27.88
2022-08-17T13:31:51.993Z,29.98
2022-08-17T13:34:56.122Z,29.85
2022-08-17T13:37:33.170Z,28.27
2022-08-17T13:40:23.900Z,30.30
2022-08-17T13:42:54.325Z,26.92
2022-08-17T13:45:51.116Z,26.17
2022-08-17T13:48:30.336Z,27.83
2022-08-17T13:51:30.440Z,31.77
2022-08-17T13:54:22.262Z,29.58
2022-08-17T13:57:02.129Z,29.60
2022-08-17T13:59:52.714Z,26.30
2022-08-17T14:02:22.533Z,27.58
2022-08-17T14:04:54.462Z,25.30
2022-08-17T14:07:32.191Z,25.00
2022-08-17T14:10:06.821Z,27.25
2022-08-17T14:12:36.389Z,26.38
2022-08-17T14:15:05.418Z,24.75
2022-08-17T14:17:38.130Z,29.30
2022-08-17T14:20:10.683Z,30.73
2022-08-17T14:22:41.678Z,29.08
2022-08-17T14:25:13.570Z,32.85
2022-08-17T14:27:52.318Z,34.63
2022-08-17T14:30:24.947Z,33.10
2022-08-17T14:32:54.075Z,31.55
2022-08-17T14:35:24.479Z,30.75
2022-08-17T14:37:54.114Z,33.67
2022-08-17T14:40:25.768Z,34.03
2022-08-17T14:42:55.820Z,32.00
2022-08-17T14:45:29.652Z,32.97
2022-08-17T14:48:01.344Z,35.33
2022-08-17T14:50:29.676Z,30.33
2022-08-17T14:53:01.573Z,37.78
2022-08-17T14:55:32.661Z,28.95
2022-08-17T14:58:01.096Z,29.98
2022-08-17T15:00:29.653Z,28.90
2022-08-17T15:03:14.982Z,28.85
2022-08-17T15:05:57.173Z,35.40
2022-08-17T15:08:34.665Z,31.23
2022-08-17T15:11:24.419Z,32.15
2022-08-17T15:14:07.804Z,30.85
2022-08-17T15:16:40.417Z,29.52
2022-08-17T15:19:09.174Z,32.42
2022-08-17T15:21:37.834Z,31.55
2022-08-17T15:24:07.033Z,26.45
2022-08-17T15:26:37.970Z,32.08
2022-08-17T15:29:06.328Z,33.75
2022-08-17T15:31:34.714Z,28.83
2022-08-17T15:34:05.238Z,27.95
2022-08-17T15:36:36.440Z,26.98
2022-08-17T15:39:04.853Z,33.88
2022-08-17T15:41:33.291Z,27.75
2022-08-17T15:44:02.973Z,32.42
2022-08-17T15:46:31.531Z,29.83
2022-08-17T15:49:03.644Z,29.48
2022-08-17T15:51:34.906Z,30.98
2022-08-17T15:54:22.333Z,35.30
2022-08-17T15:56:51.707Z,30.92
2022-08-17T15:59:21.491Z,24.33
2022-08-17T16:03:01.563Z,18.55
2022-08-17T16:04:42.653Z,15.63
2022-08-17T16:07:12.670Z,22.58
2022-08-17T16:09:42.154Z,17.83
2022-08-17T16:12:13.060Z,16.35
2022-08-17T16:14:42.832Z,17.20
2022-08-17T16:17:38.668Z,16.83
2022-08-17T16:19:59.795Z,16.35
2022-08-17T16:22:35.596Z,18.30
2022-08-17T16:25:05.968Z,18.85
2022-08-17T16:27:34.352Z,16.85
2022-08-17T16:30:04.890Z,16.02
2022-08-17T16:32:33.191Z,16.38
2022-08-17T16:35:03.354Z,16.73
2022-08-17T16:37:32.086Z,20.05
2022-08-17T16:40:03.520Z,18.83
2022-08-17T16:42:34.101Z,15.68
2022-08-17T16:45:08.024Z,16.40
2022-08-17T16:47:44.640Z,16.00
2022-08-17T16:50:15.405Z,17.95
2022-08-17T16:52:44.004Z,16.23
2022-08-17T16:55:13.394Z,18.20
2022-08-17T16:57:47.562Z,16.95
2022-08-17T17:00:21.016Z,15.73
2022-08-17T17:02:50.068Z,18.33
2022-08-17T17:05:44.682Z,16.23
2022-08-17T17:08:25.665Z,20.67
2022-08-17T17:10:56.944Z,17.90
2022-08-17T17:13:32.308Z,16.38
2022-08-17T17:16:08.812Z,16.48
2022-08-17T17:18:42.733Z,16.45
2022-08-17T17:21:14.984Z,17.05
2022-08-17T17:23:55.080Z,17.80
2022-08-17T17:26:44.339Z,18.42
2022-08-17T17:29:27.279Z,18.45
2022-08-17T17:32:07.545Z,14.48
2022-08-17T17:34:36.403Z,16.08
2022-08-17T17:37:11.918Z,14.98
2022-08-17T17:39:49.030Z,15.57
2022-08-17T17:42:21.817Z,16.05
2022-08-17T17:44:56.179Z,14.23
2022-08-17T17:47:26.702Z,14.32
2022-08-17T17:49:54.984Z,15.95
2022-08-17T17:52:32.184Z,15.63
2022-08-17T17:55:08.678Z,16.23
2022-08-17T17:57:55.848Z,13.70
2022-08-17T18:00:27.243Z,15.50
2022-08-17T18:03:11.137Z,18.20
2022-08-17T18:05:49.741Z,16.65
2022-08-17T18:08:52.944Z,16.27
2022-08-17T18:11:58.972Z,13.90
2022-08-17T18:14:40.158Z,13.60
2022-08-17T18:17:08.703Z,16.50
2022-08-17T18:19:40.389Z,15.10
2022-08-17T18:22:14.070Z,12.80
2022-08-17T18:24:44.897Z,14.80
2022-08-17T18:27:26.516Z,14.25
2022-08-17T18:29:56.563Z,17.65
2022-08-17T18:32:34.551Z,14.13
2022-08-17T18:35:28.641Z,14.20
2022-08-17T18:37:59.575Z,14.43
2022-08-17T18:40:37.727Z,15.35
2022-08-17T18:43:13.469Z,12.10
2022-08-17T18:45:46.938Z,12.80
2022-08-17T18:48:25.360Z,12.98
2022-08-17T18:50:58.441Z,12.93
2022-08-17T18:54:02.730Z,17.48
2022-08-17T18:56:33.591Z,15.95
2022-08-17T18:59:14.473Z,15.40
2022-08-17T19:01:54.487Z,14.50
2022-08-17T19:04:35.431Z,15.10
2022-08-17T19:07:24.612Z,12.57
2022-08-17T19:09:57.614Z,16.05
2022-08-17T19:12:31.302Z,14.38
2022-08-17T19:15:01.243Z,16.45
2022-08-17T19:17:38.799Z,16.83
2022-08-17T19:20:15.376Z,15.95
2022-08-17T19:22:53.869Z,14.40
2022-08-17T19:25:27.290Z,21.75
2022-08-17T19:28:02.292Z,19.45
2022-08-17T19:30:31.970Z,17.60
2022-08-17T19:33:03.131Z,19.23
2022-08-17T19:35:42.324Z,18.92
2022-08-17T19:38:26.890Z,19.20
2022-08-17T19:41:04.956Z,20.98
2022-08-17T19:44:07.142Z,21.20
2022-08-17T19:46:48.554Z,20.45
2022-08-17T19:49:40.259Z,21.27
2022-08-17T19:52:36.532Z,20.88
2022-08-17T19:55:19.902Z,18.17
2022-08-17T19:58:01.914Z,21.05
2022-08-17T20:00:31.739Z,19.50
2022-08-17T20:03:06.340Z,21.40
2022-08-17T20:06:08.489Z,28.88
2022-08-17T20:08:30.230Z,25.08
2022-08-17T20:11:07.784Z,22.80
2022-08-17T20:13:41.193Z,21.50
2022-08-17T20:16:10.243Z,25.75
2022-08-17T20:18:47.600Z,17.13
2022-08-17T20:21:20.764Z,21.92
2022-08-17T20:23:54.452Z,22.38
2022-08-17T20:26:28.320Z,21.25
2022-08-17T20:29:10.691Z,31.10
2022-08-17T20:31:45.713Z,28.90
2022-08-17T20:34:36.895Z,24.88
2022-08-17T20:37:09.137Z,31.45
2022-08-17T20:39:42.776Z,27.73
2022-08-17T20:42:30.625Z,30.67
2022-08-17T20:45:02.837Z,28.08
2022-08-17T20:47:35.089Z,27.85
2022-08-17T20:50:07.009Z,25.00
2022-08-17T20:52:54.345Z,29.88
2022-08-17T20:55:53.193Z,26.92
2022-08-17T20:58:47.781Z,35.47
2022-08-17T21:01:35.477Z,33.17
2022-08-17T21:04:09.122Z,33.60
2022-08-17T21:07:17.324Z,29.70
2022-08-17T21:09:46.533Z,31.75
2022-08-17T21:12:42.574Z,28.55
2022-08-17T21:15:32.131Z,32.22
2022-08-17T21:18:09.766Z,33.42
2022-08-17T21:20:48.437Z,32.95
2022-08-17T21:23:37.692Z,25.83
2022-08-17T21:26:17.319Z,28.95
2022-08-17T21:29:17.923Z,34.58
2022-08-17T21:32:19.086Z,29.55
2022-08-17T21:35:20.375Z,29.33
2022-08-17T21:37:53.167Z,28.73
2022-08-17T21:40:26.204Z,33.10
2022-08-17T21:42:58.115Z,30.67
2022-08-17T21:45:28.819Z,35.15
2022-08-17T21:48:14.420Z,33.97
2022-08-17T21:50:46.134Z,27.52
2022-08-17T21:53:25.418Z,35.03
2022-08-17T21:55:55.393Z,23.73
2022-08-17T21:58:31.195Z,29.40
2022-08-17T22:01:23.496Z,28.05
2022-08-17T22:04:03.894Z,26.08
2022-08-17T22:06:38.067Z,23.15
2022-08-17T22:09:12.855Z,30.75
2022-08-17T22:12:07.315Z,27.98
2022-08-17T22:14:52.935Z,30.55
2022-08-17T22:17:24.978Z,36.28
2022-08-17T22:19:57.375Z,26.58
2022-08-17T22:22:33.562Z,36.60
2022-08-17T22:25:04.138Z,27.40
2022-08-17T22:27:56.463Z,30.73
2022-08-17T22:30:32.094Z,38.17
2022-08-17T22:33:01.873Z,34.17
2022-08-17T22:35:37.511Z,26.33
2022-08-17T22:38:33.699Z,27.67
2022-08-17T22:41:27.929Z,29.98
2022-08-17T22:43:57.480Z,28.83
2022-08-17T22:46:26.672Z,23.35
2022-08-17T22:48:57.894Z,22.58
2022-08-17T22:51:30.877Z,21.30
2022-08-17T22:54:31.229Z,23.85
2022-08-17T22:57:20.411Z,30.52
2022-08-17T22:59:51.123Z,31.65
2022-08-17T23:02:24.627Z,26.58
2022-08-17T23:04:57.490Z,24.42
2022-08-17T23:07:26.882Z,19.10
2022-08-17T23:09:55.450Z,19.20
2022-08-17T23:12:27.442Z,27.90
2022-08-17T23:15:01.594Z,23.85
2022-08-17T23:17:36.922Z,28.67
2022-08-17T23:20:08.502Z,20.75
2022-08-17T23:22:51.110Z,24.73
2022-08-17T23:25:28.109Z,27.10
2022-08-17T23:27:57.384Z,29.30
2022-08-17T23:30:28.544Z,26.60
2022-08-17T23:32:59.497Z,24.33
2022-08-17T23:35:39.931Z,26.90
2022-08-17T23:38:11.359Z,26.38
2022-08-17T23:40:40.157Z,23.83
2022-08-17T23:43:17.650Z,33.20
2022-08-17T23:45:51.935Z,25.10
2022-08-17T23:48:28.408Z,24.30
2022-08-17T23:51:09.149Z,28.17
2022-08-17T23:53:42.000Z,21.30
2022-08-17T23:56:11.628Z,23.80
2022-08-17T23:58:45.231Z,24.70
